Time;durP1;ratioP1;P1;durP2;ratioP2;P2;SDS_P1;SDS_P2;PMS_P1;PMS_P2;Temp;Humidity;BMP_temperature;BMP_pressure;BME280_temperature;BME280_humidity;BME280_pressure;Samples;Min_cycle;Max_cycle;Signal;HPM_P1;HPM_P2
2023/09/02 00:01:22;;;;;;;15.60;10.18;;;;;;;;;;4971588;28;20431;-81
2023/09/02 00:03:47;;;;;;;16.38;10.50;;;;;;;;;;4987591;28;20033;-80
2023/09/02 00:06:12;;;;;;;14.07;10.23;;;;;;;;;;4988068;28;20562;-81
2023/09/02 00:08:38;;;;;;;14.27;9.20;;;;;;;;;;4971417;28;20025;-81
2023/09/02 00:11:03;;;;;;;15.55;10.52;;;;;;;;;;4977278;28;20037;-81
2023/09/02 00:13:29;;;;;;;14.82;9.20;;;;;;;;;;4983147;28;20259;-81
2023/09/02 00:15:54;;;;;;;14.60;10.00;;;;;;;;;;4986042;28;20030;-80
2023/09/02 00:18:19;;;;;;;14.43;9.75;;;;;;;;;;4990147;28;20057;-81
2023/09/02 00:20:45;;;;;;;14.68;10.07;;;;;;;;;;4980908;28;20041;-80
2023/09/02 00:23:10;;;;;;;12.77;9.32;;;;;;;;;;4989308;28;20504;-81
2023/09/02 00:25:36;;;;;;;14.95;9.80;;;;;;;;;;4988341;28;20041;-80
2023/09/02 00:28:01;;;;;;;15.63;10.10;;;;;;;;;;4991745;28;20018;-80
2023/09/02 00:30:26;;;;;;;13.35;9.50;;;;;;;;;;4971595;28;20026;-80
2023/09/02 00:32:52;;;;;;;13.52;9.30;;;;;;;;;;4962982;28;20118;-79
2023/09/02 00:35:17;;;;;;;16.10;10.30;;;;;;;;;;4975223;28;20037;-80
2023/09/02 00:37:43;;;;;;;13.02;8.70;;;;;;;;;;4987829;28;20030;-80
2023/09/02 00:40:13;;;;;;;13.70;9.45;;;;;;;;;;4971233;28;20029;-80
2023/09/02 00:42:40;;;;;;;13.40;9.23;;;;;;;;;;4971695;28;20219;-80
2023/09/02 00:45:05;;;;;;;14.10;8.98;;;;;;;;;;4986144;28;20018;-80
2023/09/02 00:47:31;;;;;;;14.07;9.65;;;;;;;;;;4985495;28;20033;-80
2023/09/02 00:49:58;;;;;;;13.15;8.73;;;;;;;;;;4981683;28;20079;-80
2023/09/02 00:52:23;;;;;;;13.48;9.05;;;;;;;;;;4968398;28;20031;-80
2023/09/02 00:54:49;;;;;;;16.23;10.77;;;;;;;;;;4976311;28;20040;-80
2023/09/02 00:57:14;;;;;;;14.93;9.23;;;;;;;;;;4972487;28;20044;-80
2023/09/02 00:59:40;;;;;;;13.63;9.63;;;;;;;;;;4965705;28;20401;-80
2023/09/02 01:02:07;;;;;;;14.68;9.57;;;;;;;;;;4974931;28;20085;-80
2023/09/02 01:04:34;;;;;;;14.63;9.73;;;;;;;;;;4987840;28;20045;-80
2023/09/02 01:07:01;;;;;;;14.38;10.00;;;;;;;;;;4986252;28;20552;-80
2023/09/02 01:09:26;;;;;;;14.85;10.43;;;;;;;;;;4988179;28;20023;-79
2023/09/02 01:11:52;;;;;;;15.13;10.18;;;;;;;;;;4974784;28;20041;-80
2023/09/02 01:14:17;;;;;;;16.65;10.70;;;;;;;;;;4992516;28;20030;-80
2023/09/02 01:16:43;;;;;;;16.42;10.50;;;;;;;;;;4978217;28;20121;-80
2023/09/02 01:19:15;;;;;;;18.50;10.80;;;;;;;;;;4976564;28;20037;-80
2023/09/02 01:22:02;;;;;;;17.60;10.60;;;;;;;;;;4978379;28;20030;-80
2023/09/02 01:24:46;;;;;;;14.25;9.80;;;;;;;;;;4994942;28;20367;-80
2023/09/02 01:27:18;;;;;;;13.38;9.13;;;;;;;;;;4986010;28;20026;-80
2023/09/02 01:29:55;;;;;;;14.63;9.68;;;;;;;;;;4981153;28;20989;-80
2023/09/02 01:32:22;;;;;;;15.15;10.05;;;;;;;;;;4976682;28;20111;-80
2023/09/02 01:34:48;;;;;;;14.27;9.27;;;;;;;;;;4981650;28;20030;-79
2023/09/02 01:37:17;;;;;;;16.55;9.77;;;;;;;;;;4993710;28;20486;-78
2023/09/02 01:39:46;;;;;;;14.27;9.27;;;;;;;;;;4989982;28;20037;-81
2023/09/02 01:42:12;;;;;;;15.15;9.55;;;;;;;;;;4971557;28;20076;-81
2023/09/02 01:44:39;;;;;;;14.68;9.85;;;;;;;;;;4967787;28;20434;-81
2023/09/02 01:47:05;;;;;;;16.15;10.20;;;;;;;;;;4972829;28;20478;-80
2023/09/02 01:49:30;;;;;;;17.83;11.05;;;;;;;;;;4987673;28;20037;-81
2023/09/02 01:51:57;;;;;;;16.48;10.27;;;;;;;;;;4976586;28;20518;-81
2023/09/02 01:54:22;;;;;;;18.58;11.10;;;;;;;;;;4986146;28;20407;-81
2023/09/02 01:56:48;;;;;;;18.13;10.90;;;;;;;;;;4990823;28;20032;-80
2023/09/02 01:59:14;;;;;;;17.63;10.95;;;;;;;;;;4969462;28;20398;-81
2023/09/02 02:01:39;;;;;;;18.48;11.82;;;;;;;;;;4972259;28;20026;-80
2023/09/02 02:04:16;;;;;;;19.20;11.38;;;;;;;;;;4986534;28;20030;-81
2023/09/02 02:06:43;;;;;;;16.70;11.40;;;;;;;;;;4966800;28;20037;-81
2023/09/02 02:09:13;;;;;;;25.98;12.10;;;;;;;;;;4989741;28;20021;-81
2023/09/02 02:11:39;;;;;;;20.00;11.55;;;;;;;;;;4974448;28;20386;-81
2023/09/02 02:14:05;;;;;;;20.80;12.13;;;;;;;;;;4973050;28;20035;-81
2023/09/02 02:16:31;;;;;;;19.13;12.15;;;;;;;;;;4985570;28;20029;-81
2023/09/02 02:18:59;;;;;;;19.80;11.95;;;;;;;;;;4973475;28;20397;-80
2023/09/02 02:21:26;;;;;;;21.05;12.48;;;;;;;;;;4968734;28;20022;-81
2023/09/02 02:23:51;;;;;;;20.35;12.50;;;;;;;;;;4979642;28;20038;-81
2023/09/02 02:26:17;;;;;;;19.85;12.00;;;;;;;;;;4981902;28;20054;-81
2023/09/02 02:28:42;;;;;;;19.85;12.20;;;;;;;;;;4986564;28;20033;-81
2023/09/02 02:31:09;;;;;;;18.65;11.48;;;;;;;;;;4985656;28;20485;-81
2023/09/02 02:33:36;;;;;;;19.30;11.85;;;;;;;;;;4984505;28;20027;-81
2023/09/02 02:36:02;;;;;;;18.27;12.10;;;;;;;;;;4989629;28;20085;-81
2023/09/02 02:38:27;;;;;;;17.38;11.50;;;;;;;;;;4966318;28;20434;-81
2023/09/02 02:40:52;;;;;;;19.02;11.95;;;;;;;;;;4968063;28;20038;-81
2023/09/02 02:43:25;;;;;;;21.35;12.80;;;;;;;;;;4987097;28;20085;-81
2023/09/02 02:45:51;;;;;;;18.50;12.00;;;;;;;;;;4984542;28;20040;-81
2023/09/02 02:48:17;;;;;;;18.13;12.02;;;;;;;;;;4967387;28;20031;-81
2023/09/02 02:50:42;;;;;;;19.10;12.15;;;;;;;;;;4989551;28;20502;-81
2023/09/02 02:53:07;;;;;;;20.30;12.55;;;;;;;;;;4975993;28;20034;-81
2023/09/02 02:55:33;;;;;;;18.30;12.02;;;;;;;;;;4991027;28;20076;-80
2023/09/02 02:57:59;;;;;;;18.25;11.80;;;;;;;;;;5004258;28;20054;-81
2023/09/02 03:00:24;;;;;;;20.38;13.10;;;;;;;;;;4988066;28;20021;-80
2023/09/02 03:02:52;;;;;;;18.50;12.10;;;;;;;;;;5006394;28;20040;-80
2023/09/02 03:05:19;;;;;;;19.08;12.65;;;;;;;;;;4992903;28;20118;-80
2023/09/02 03:07:45;;;;;;;20.13;13.07;;;;;;;;;;4991345;28;20072;-81
2023/09/02 03:10:11;;;;;;;21.92;13.85;;;;;;;;;;5007647;28;20026;-81
2023/09/02 03:12:36;;;;;;;21.27;13.57;;;;;;;;;;4990161;28;20456;-81
2023/09/02 03:15:02;;;;;;;22.95;14.65;;;;;;;;;;4981952;28;20033;-81
2023/09/02 03:17:27;;;;;;;21.73;13.32;;;;;;;;;;4984755;28;20030;-81
2023/09/02 03:19:53;;;;;;;18.77;11.85;;;;;;;;;;4981530;28;20041;-80
2023/09/02 03:22:18;;;;;;;20.17;12.80;;;;;;;;;;4999076;28;20033;-81
2023/09/02 03:24:44;;;;;;;19.98;12.60;;;;;;;;;;4999741;28;20386;-81
2023/09/02 03:27:09;;;;;;;21.67;13.10;;;;;;;;;;5006026;28;20022;-81
2023/09/02 03:29:35;;;;;;;21.25;13.27;;;;;;;;;;4992561;28;20125;-81
2023/09/02 03:32:00;;;;;;;20.33;12.70;;;;;;;;;;4991029;28;20044;-81
2023/09/02 03:34:25;;;;;;;21.33;13.45;;;;;;;;;;4988795;28;20018;-81
2023/09/02 03:36:50;;;;;;;17.80;12.23;;;;;;;;;;4991225;28;20030;-82
2023/09/02 03:39:16;;;;;;;19.13;12.15;;;;;;;;;;4988545;28;20026;-81
2023/09/02 03:41:41;;;;;;;18.20;11.25;;;;;;;;;;5001861;28;20033;-81
2023/09/02 03:44:06;;;;;;;17.75;11.95;;;;;;;;;;5009092;28;20029;-81
2023/09/02 03:46:32;;;;;;;17.45;11.25;;;;;;;;;;5006203;28;20026;-81
2023/09/02 03:48:58;;;;;;;16.48;10.77;;;;;;;;;;4972029;28;20022;-81
2023/09/02 03:51:23;;;;;;;15.10;10.57;;;;;;;;;;4992897;28;20022;-81
2023/09/02 03:53:48;;;;;;;15.05;10.38;;;;;;;;;;4994338;28;20057;-81
2023/09/02 03:56:14;;;;;;;16.58;10.20;;;;;;;;;;4971415;28;20041;-81
2023/09/02 03:58:39;;;;;;;14.82;9.98;;;;;;;;;;4988256;28;20026;-81
2023/09/02 04:01:05;;;;;;;14.60;10.02;;;;;;;;;;4970558;28;20394;-81
2023/09/02 04:03:35;;;;;;;16.67;10.32;;;;;;;;;;4970515;28;20046;-81
2023/09/02 04:06:01;;;;;;;18.70;10.48;;;;;;;;;;4968437;28;20546;-80
2023/09/02 04:08:27;;;;;;;17.55;11.32;;;;;;;;;;4968332;28;20108;-81
2023/09/02 04:10:54;;;;;;;15.88;10.35;;;;;;;;;;4996381;28;20033;-80
2023/09/02 04:13:24;;;;;;;17.08;10.35;;;;;;;;;;4988990;28;20030;-81
2023/09/02 04:15:54;;;;;;;16.90;11.25;;;;;;;;;;4968629;28;20128;-81
2023/09/02 04:18:19;;;;;;;15.38;10.52;;;;;;;;;;4988384;28;20046;-81
2023/09/02 04:20:44;;;;;;;15.18;9.82;;;;;;;;;;4985690;28;20475;-81
2023/09/02 04:23:10;;;;;;;13.25;9.23;;;;;;;;;;4966463;28;20022;-81
2023/09/02 04:25:49;;;;;;;11.80;8.70;;;;;;;;;;4965601;28;20141;-80
2023/09/02 04:28:15;;;;;;;10.95;8.07;;;;;;;;;;4983128;28;20026;-81
2023/09/02 04:30:42;;;;;;;10.82;8.57;;;;;;;;;;4964082;28;20030;-81
2023/09/02 04:33:08;;;;;;;11.57;8.80;;;;;;;;;;4975747;28;20105;-81
2023/09/02 04:35:41;;;;;;;10.70;8.57;;;;;;;;;;4988936;28;20026;-81
2023/09/02 04:38:06;;;;;;;12.93;8.73;;;;;;;;;;4989501;28;20494;-81
2023/09/02 04:40:42;;;;;;;11.07;8.50;;;;;;;;;;4989721;28;20038;-81
2023/09/02 04:43:09;;;;;;;12.18;8.27;;;;;;;;;;4990008;28;20057;-81
2023/09/02 04:45:36;;;;;;;10.93;8.23;;;;;;;;;;4969149;28;20592;-81
2023/09/02 04:48:05;;;;;;;11.98;8.57;;;;;;;;;;4983759;28;20113;-80
2023/09/02 04:50:31;;;;;;;13.68;8.63;;;;;;;;;;4989396;28;20105;-81
2023/09/02 04:52:58;;;;;;;11.88;9.15;;;;;;;;;;4988642;28;20030;-81
2023/09/02 04:55:27;;;;;;;12.13;8.85;;;;;;;;;;4987206;28;20026;-81
2023/09/02 04:57:54;;;;;;;12.25;9.25;;;;;;;;;;4988639;28;20034;-81
2023/09/02 05:00:22;;;;;;;12.25;9.00;;;;;;;;;;4992492;28;20423;-81
2023/09/02 05:02:47;;;;;;;11.57;8.95;;;;;;;;;;4988558;28;20105;-81
2023/09/02 05:05:14;;;;;;;12.18;9.35;;;;;;;;;;4992030;28;20117;-81
2023/09/02 05:07:40;;;;;;;13.15;9.05;;;;;;;;;;4989284;28;20031;-80
2023/09/02 05:10:05;;;;;;;14.02;8.50;;;;;;;;;;4966774;28;20635;-80
2023/09/02 05:12:31;;;;;;;12.23;9.15;;;;;;;;;;4968517;28;20038;-81
2023/09/02 05:14:56;;;;;;;10.98;8.93;;;;;;;;;;4974987;28;20379;-80
2023/09/02 05:17:24;;;;;;;11.88;8.77;;;;;;;;;;4977234;28;20081;-81
2023/09/02 05:19:50;;;;;;;11.57;8.82;;;;;;;;;;4973635;28;20428;-81
2023/09/02 05:22:15;;;;;;;11.10;8.65;;;;;;;;;;4975551;28;20769;-81
2023/09/02 05:24:40;;;;;;;10.45;7.80;;;;;;;;;;4990710;28;20034;-81
2023/09/02 05:27:06;;;;;;;11.27;8.57;;;;;;;;;;4969036;28;20053;-81
2023/09/02 05:29:31;;;;;;;12.98;8.82;;;;;;;;;;4981421;28;20541;-81
2023/09/02 05:31:57;;;;;;;11.10;8.90;;;;;;;;;;4981126;28;20035;-81
2023/09/02 05:34:22;;;;;;;10.60;8.05;;;;;;;;;;4965146;28;20026;-80
2023/09/02 05:36:47;;;;;;;11.77;8.77;;;;;;;;;;4969703;28;20046;-80
2023/09/02 05:39:13;;;;;;;11.40;8.43;;;;;;;;;;4987532;28;20549;-80
2023/09/02 05:41:40;;;;;;;10.10;8.32;;;;;;;;;;4968272;28;20033;-80
2023/09/02 05:44:05;;;;;;;10.80;8.02;;;;;;;;;;4969121;28;20504;-80
2023/09/02 05:46:32;;;;;;;10.07;8.32;;;;;;;;;;4971391;28;20121;-80
2023/09/02 05:48:57;;;;;;;11.20;7.68;;;;;;;;;;4972107;28;20112;-80
2023/09/02 05:51:22;;;;;;;9.60;7.63;;;;;;;;;;4975220;28;20113;-80
2023/09/02 05:53:48;;;;;;;10.45;7.78;;;;;;;;;;4985647;28;20069;-79
2023/09/02 05:56:13;;;;;;;9.55;7.20;;;;;;;;;;4987397;28;20467;-80
2023/09/02 05:58:38;;;;;;;8.95;7.07;;;;;;;;;;4970155;28;20117;-80
2023/09/02 06:01:04;;;;;;;9.43;7.22;;;;;;;;;;4970658;28;20022;-80
2023/09/02 06:03:30;;;;;;;9.00;7.05;;;;;;;;;;4988708;28;20053;-78
2023/09/02 06:05:56;;;;;;;12.20;7.82;;;;;;;;;;4988279;28;20057;-78
2023/09/02 06:08:21;;;;;;;10.20;6.82;;;;;;;;;;4991241;28;20024;-78
2023/09/02 06:10:57;;;;;;;9.20;7.05;;;;;;;;;;4971759;28;20081;-78
2023/09/02 06:13:22;;;;;;;8.95;6.57;;;;;;;;;;4988480;28;20026;-79
2023/09/02 06:15:47;;;;;;;8.40;6.65;;;;;;;;;;4987639;28;20117;-78
2023/09/02 06:18:13;;;;;;;7.93;6.32;;;;;;;;;;4992048;28;20414;-78
2023/09/02 06:20:38;;;;;;;10.00;6.32;;;;;;;;;;4972858;28;20063;-80
2023/09/02 06:23:03;;;;;;;10.00;6.47;;;;;;;;;;4990276;28;20109;-78
2023/09/02 06:25:29;;;;;;;9.25;6.93;;;;;;;;;;4983148;28;20030;-78
2023/09/02 06:27:54;;;;;;;9.02;6.10;;;;;;;;;;4980093;28;20030;-79
2023/09/02 06:30:19;;;;;;;7.63;5.55;;;;;;;;;;4968695;28;20382;-79
2023/09/02 06:32:45;;;;;;;8.88;6.57;;;;;;;;;;4987988;28;20102;-77
2023/09/02 06:35:14;;;;;;;8.23;6.38;;;;;;;;;;4990226;28;20054;-78
2023/09/02 06:37:40;;;;;;;7.72;6.20;;;;;;;;;;4988534;28;20442;-78
2023/09/02 06:40:06;;;;;;;7.68;5.97;;;;;;;;;;4974539;28;20031;-78
2023/09/02 06:42:32;;;;;;;8.30;6.20;;;;;;;;;;4983339;28;20045;-79
2023/09/02 06:44:57;;;;;;;7.18;5.68;;;;;;;;;;4981636;28;20409;-82
2023/09/02 06:47:23;;;;;;;9.50;6.68;;;;;;;;;;4988920;28;20450;-78
2023/09/02 06:49:49;;;;;;;8.77;6.53;;;;;;;;;;4988055;28;20022;-78
2023/09/02 06:52:14;;;;;;;7.78;5.90;;;;;;;;;;4982160;28;20037;-78
2023/09/02 06:54:40;;;;;;;8.48;5.88;;;;;;;;;;4980994;28;20558;-80
2023/09/02 06:57:05;;;;;;;7.88;5.88;;;;;;;;;;5001779;28;20026;-78
2023/09/02 06:59:30;;;;;;;12.15;7.53;;;;;;;;;;5008546;28;20049;-78
2023/09/02 07:01:56;;;;;;;12.05;7.75;;;;;;;;;;4999084;28;20073;-79
2023/09/02 07:04:21;;;;;;;12.32;7.70;;;;;;;;;;4985319;28;20058;-79
2023/09/02 07:06:46;;;;;;;9.52;7.05;;;;;;;;;;4980858;28;20068;-79
2023/09/02 07:09:12;;;;;;;8.52;6.10;;;;;;;;;;4981402;28;20376;-78
2023/09/02 07:11:37;;;;;;;9.27;6.65;;;;;;;;;;4996890;28;20616;-79
2023/09/02 07:14:03;;;;;;;7.72;5.78;;;;;;;;;;4998315;28;20030;-78
2023/09/02 07:16:28;;;;;;;8.60;6.55;;;;;;;;;;4996456;28;20037;-79
2023/09/02 07:18:54;;;;;;;9.30;6.85;;;;;;;;;;4994094;28;20504;-80
2023/09/02 07:21:22;;;;;;;7.70;5.60;;;;;;;;;;4995008;28;20037;-78
2023/09/02 07:23:48;;;;;;;7.82;5.70;;;;;;;;;;4991184;28;20531;-79
2023/09/02 07:26:14;;;;;;;8.85;6.47;;;;;;;;;;4989980;28;20025;-78
2023/09/02 07:28:41;;;;;;;8.25;6.15;;;;;;;;;;4976950;28;20485;-79
2023/09/02 07:31:07;;;;;;;8.70;6.72;;;;;;;;;;4977292;28;20545;-78
2023/09/02 07:33:34;;;;;;;9.05;6.32;;;;;;;;;;4980832;28;20024;-78
2023/09/02 07:36:07;;;;;;;7.63;6.13;;;;;;;;;;4990618;28;20053;-79
2023/09/02 07:38:32;;;;;;;10.68;7.97;;;;;;;;;;4997782;28;20073;-78
2023/09/02 07:40:57;;;;;;;8.10;5.47;;;;;;;;;;5008702;28;20070;-78
2023/09/02 07:43:22;;;;;;;7.22;5.60;;;;;;;;;;5004502;28;20127;-79
2023/09/02 07:45:49;;;;;;;7.97;6.03;;;;;;;;;;5004194;28;20100;-77
2023/09/02 07:48:14;;;;;;;8.93;6.60;;;;;;;;;;5006300;28;20025;-78
2023/09/02 07:50:39;;;;;;;10.73;7.35;;;;;;;;;;5007505;28;21918;-78
2023/09/02 07:53:05;;;;;;;8.88;6.95;;;;;;;;;;4983667;28;20113;-83
2023/09/02 07:55:30;;;;;;;8.10;6.38;;;;;;;;;;4985456;28;20122;-82
2023/09/02 07:57:57;;;;;;;11.30;7.97;;;;;;;;;;4978944;28;20030;-82
2023/09/02 08:00:22;;;;;;;7.63;5.78;;;;;;;;;;4967882;28;21048;-84
2023/09/02 08:02:48;;;;;;;7.97;5.10;;;;;;;;;;4992825;28;20037;-83
2023/09/02 08:05:13;;;;;;;7.93;6.00;;;;;;;;;;4971063;28;20030;-84
2023/09/02 08:07:38;;;;;;;11.73;8.85;;;;;;;;;;4976985;28;20027;-83
2023/09/02 08:10:04;;;;;;;9.98;7.15;;;;;;;;;;4994260;28;20106;-84
2023/09/02 08:12:29;;;;;;;10.20;8.02;;;;;;;;;;4983128;28;20147;-84
2023/09/02 08:14:55;;;;;;;10.52;7.55;;;;;;;;;;4977185;28;20023;-83
2023/09/02 08:17:20;;;;;;;9.98;7.50;;;;;;;;;;4979519;28;20030;-83
2023/09/02 08:19:45;;;;;;;12.27;8.88;;;;;;;;;;4995358;28;20386;-83
2023/09/02 08:22:12;;;;;;;13.20;9.27;;;;;;;;;;4994897;28;20030;-84
2023/09/02 08:24:37;;;;;;;11.82;8.82;;;;;;;;;;4993878;28;20037;-83
2023/09/02 08:27:03;;;;;;;13.80;9.57;;;;;;;;;;4993486;28;20486;-83
2023/09/02 08:29:28;;;;;;;15.07;11.00;;;;;;;;;;4975914;28;20025;-82
2023/09/02 08:31:55;;;;;;;13.93;10.00;;;;;;;;;;4993768;28;20026;-82
2023/09/02 08:34:21;;;;;;;16.85;11.35;;;;;;;;;;4973393;28;20031;-84
2023/09/02 08:36:46;;;;;;;16.05;10.52;;;;;;;;;;4996982;28;20042;-83
2023/09/02 08:39:11;;;;;;;16.27;10.48;;;;;;;;;;4983849;28;20022;-84
2023/09/02 08:41:39;;;;;;;15.73;11.18;;;;;;;;;;4976541;28;20033;-83
2023/09/02 08:44:04;;;;;;;13.85;10.38;;;;;;;;;;4995792;28;20058;-85
2023/09/02 08:46:38;;;;;;;16.70;10.55;;;;;;;;;;4987670;28;20445;-81
2023/09/02 08:49:03;;;;;;;14.05;10.45;;;;;;;;;;4991587;28;20363;-84
2023/09/02 08:51:29;;;;;;;14.55;10.43;;;;;;;;;;4988532;28;20161;-82
2023/09/02 08:53:56;;;;;;;15.57;11.25;;;;;;;;;;4981555;28;21474;-83
2023/09/02 08:56:23;;;;;;;16.05;11.13;;;;;;;;;;4986949;28;20429;-83
2023/09/02 08:58:49;;;;;;;16.60;11.45;;;;;;;;;;5013439;28;20478;-84
2023/09/02 09:01:18;;;;;;;16.63;11.85;;;;;;;;;;5013395;28;20025;-83
2023/09/02 09:03:47;;;;;;;15.52;10.77;;;;;;;;;;4998598;28;20080;-79
2023/09/02 09:06:13;;;;;;;15.90;10.77;;;;;;;;;;4993604;28;20474;-78
2023/09/02 09:08:39;;;;;;;16.65;10.90;;;;;;;;;;5007753;28;20034;-79
2023/09/02 09:11:06;;;;;;;16.95;11.77;;;;;;;;;;4988702;28;20018;-78
2023/09/02 09:13:34;;;;;;;16.00;11.70;;;;;;;;;;5008537;28;20412;-79
2023/09/02 09:16:01;;;;;;;18.52;12.63;;;;;;;;;;5004825;28;20113;-79
2023/09/02 09:18:27;;;;;;;18.67;13.18;;;;;;;;;;4989778;28;20034;-79
2023/09/02 09:20:53;;;;;;;19.90;13.77;;;;;;;;;;4986397;28;20397;-79
2023/09/02 09:23:19;;;;;;;19.27;12.85;;;;;;;;;;5000278;28;20058;-79
2023/09/02 09:25:49;;;;;;;18.38;12.73;;;;;;;;;;5009793;28;20073;-79
2023/09/02 09:28:14;;;;;;;19.80;12.50;;;;;;;;;;4984856;28;20161;-79
2023/09/02 09:30:40;;;;;;;17.55;12.73;;;;;;;;;;5007175;28;20545;-80
2023/09/02 09:33:06;;;;;;;20.17;12.95;;;;;;;;;;5005026;28;20112;-79
2023/09/02 09:35:33;;;;;;;20.90;14.48;;;;;;;;;;4988807;28;20124;-79
2023/09/02 09:37:58;;;;;;;20.17;13.43;;;;;;;;;;5005167;28;20481;-78
2023/09/02 09:40:32;;;;;;;19.42;13.65;;;;;;;;;;5001904;28;20033;-79
2023/09/02 09:42:59;;;;;;;22.35;14.20;;;;;;;;;;5006074;28;20036;-79
2023/09/02 09:45:25;;;;;;;22.80;15.05;;;;;;;;;;4986938;28;20108;-79
2023/09/02 09:47:50;;;;;;;22.15;13.77;;;;;;;;;;4984961;28;20060;-79
2023/09/02 09:50:16;;;;;;;21.67;14.68;;;;;;;;;;4982147;28;20030;-79
2023/09/02 09:53:01;;;;;;;24.33;16.00;;;;;;;;;;4999414;28;21376;-80
2023/09/02 09:55:31;;;;;;;22.05;14.65;;;;;;;;;;4979490;28;20038;-79
2023/09/02 09:57:57;;;;;;;23.95;15.30;;;;;;;;;;4983330;28;20493;-78
2023/09/02 10:00:24;;;;;;;24.05;14.98;;;;;;;;;;4971762;28;20049;-79
2023/09/02 10:02:54;;;;;;;23.35;15.55;;;;;;;;;;4966497;28;20030;-79
2023/09/02 10:05:33;;;;;;;23.05;15.43;;;;;;;;;;4989081;28;20018;-81
2023/09/02 10:08:05;;;;;;;23.77;14.75;;;;;;;;;;4971335;28;20045;-79
2023/09/02 10:10:35;;;;;;;21.63;15.07;;;;;;;;;;4978932;28;20076;-79
2023/09/02 10:13:01;;;;;;;24.58;15.32;;;;;;;;;;4972565;28;20035;-83
2023/09/02 10:15:27;;;;;;;21.58;14.90;;;;;;;;;;4972948;28;21338;-83
2023/09/02 10:18:01;;;;;;;24.45;15.98;;;;;;;;;;4990231;28;20034;-83
2023/09/02 10:20:31;;;;;;;24.50;16.13;;;;;;;;;;4970743;28;20034;-82
2023/09/02 10:23:04;;;;;;;23.40;15.48;;;;;;;;;;4986338;28;20455;-84
2023/09/02 10:25:37;;;;;;;24.98;16.13;;;;;;;;;;4981961;28;20166;-84
2023/09/02 10:28:10;;;;;;;23.80;15.80;;;;;;;;;;4990526;28;20033;-84
2023/09/02 10:30:42;;;;;;;23.63;15.93;;;;;;;;;;4969964;28;20125;-84
2023/09/02 10:33:38;;;;;;;24.27;15.63;;;;;;;;;;4968141;28;20030;-84
2023/09/02 10:36:06;;;;;;;23.73;15.70;;;;;;;;;;4985202;28;20605;-84
2023/09/02 10:38:41;;;;;;;23.67;15.18;;;;;;;;;;4990997;28;20162;-84
2023/09/02 10:41:16;;;;;;;22.58;15.43;;;;;;;;;;4984181;28;20105;-82
2023/09/02 10:43:43;;;;;;;25.05;16.95;;;;;;;;;;4975326;28;20045;-84
2023/09/02 10:46:10;;;;;;;22.83;15.68;;;;;;;;;;4971963;28;20026;-84
2023/09/02 10:48:37;;;;;;;23.75;15.02;;;;;;;;;;4993784;28;20060;-84
2023/09/02 10:51:04;;;;;;;24.83;15.82;;;;;;;;;;4971807;28;20026;-85
2023/09/02 10:53:48;;;;;;;24.88;16.08;;;;;;;;;;4982425;28;20022;-83
2023/09/02 10:56:30;;;;;;;27.35;16.52;;;;;;;;;;5010288;28;20401;-84
2023/09/02 10:58:57;;;;;;;26.73;17.10;;;;;;;;;;5011264;28;20050;-84
2023/09/02 11:01:24;;;;;;;25.58;16.60;;;;;;;;;;5006857;28;20331;-84
2023/09/02 11:03:55;;;;;;;24.17;16.42;;;;;;;;;;4985341;28;20460;-85
2023/09/02 11:06:21;;;;;;;24.90;15.98;;;;;;;;;;4989553;28;20113;-84
2023/09/02 11:08:50;;;;;;;25.83;16.75;;;;;;;;;;4985216;28;20105;-85
2023/09/02 11:11:20;;;;;;;24.13;15.35;;;;;;;;;;4985708;28;20040;-85
2023/09/02 11:14:07;;;;;;;22.35;15.80;;;;;;;;;;4999946;28;20034;-84
2023/09/02 11:16:33;;;;;;;27.90;16.77;;;;;;;;;;5011646;28;20032;-85
2023/09/02 11:19:00;;;;;;;25.45;16.77;;;;;;;;;;4985786;28;20176;-85
2023/09/02 11:21:48;;;;;;;24.52;17.27;;;;;;;;;;5006472;28;20444;-86
2023/09/02 11:24:14;;;;;;;24.00;16.50;;;;;;;;;;5009704;28;20486;-82
2023/09/02 11:26:59;;;;;;;25.77;17.02;;;;;;;;;;5005543;28;20040;-83
2023/09/02 11:29:29;;;;;;;22.75;16.45;;;;;;;;;;5010452;28;20026;-83
2023/09/02 11:32:03;;;;;;;26.88;17.05;;;;;;;;;;4990940;28;20165;-82
2023/09/02 11:34:29;;;;;;;22.83;16.83;;;;;;;;;;4988181;28;20081;-83
2023/09/02 11:36:56;;;;;;;22.35;16.75;;;;;;;;;;4988231;28;20030;-83
2023/09/02 11:39:28;;;;;;;24.25;16.98;;;;;;;;;;5003330;28;20619;-83
2023/09/02 11:42:11;;;;;;;22.13;16.70;;;;;;;;;;4989383;28;20492;-83
2023/09/02 11:44:36;;;;;;;22.67;15.88;;;;;;;;;;4990320;28;20038;-83
2023/09/02 11:47:02;;;;;;;23.15;17.50;;;;;;;;;;4989330;28;20034;-84
2023/09/02 11:49:28;;;;;;;25.90;18.17;;;;;;;;;;4990529;28;20124;-83
2023/09/02 11:51:54;;;;;;;27.02;18.60;;;;;;;;;;4991615;28;20140;-83
2023/09/02 11:54:19;;;;;;;25.40;18.17;;;;;;;;;;4974755;28;20034;-83
2023/09/02 11:57:00;;;;;;;24.88;17.73;;;;;;;;;;4973049;28;20038;-83
2023/09/02 11:59:28;;;;;;;24.20;18.02;;;;;;;;;;4969590;28;20038;-83
2023/09/02 12:02:15;;;;;;;25.70;18.63;;;;;;;;;;4981962;28;20022;-83
2023/09/02 12:04:41;;;;;;;24.20;17.83;;;;;;;;;;4969876;28;20029;-83
2023/09/02 12:07:10;;;;;;;26.85;17.88;;;;;;;;;;4986756;28;20026;-83
2023/09/02 12:09:36;;;;;;;25.70;18.65;;;;;;;;;;4986549;28;20022;-83
2023/09/02 12:12:06;;;;;;;26.60;18.50;;;;;;;;;;4967146;28;20407;-84
2023/09/02 12:14:40;;;;;;;26.10;18.00;;;;;;;;;;4965854;28;20398;-83
2023/09/02 12:17:09;;;;;;;22.77;16.88;;;;;;;;;;4970919;28;20034;-84
2023/09/02 12:19:36;;;;;;;26.13;18.60;;;;;;;;;;4989994;28;20092;-83
2023/09/02 12:22:01;;;;;;;24.40;17.95;;;;;;;;;;4970882;28;20417;-83
2023/09/02 12:24:30;;;;;;;26.40;17.92;;;;;;;;;;4964910;28;20034;-83
2023/09/02 12:26:57;;;;;;;24.50;17.60;;;;;;;;;;4971145;28;20097;-81
2023/09/02 12:29:24;;;;;;;26.60;18.50;;;;;;;;;;4972869;28;20022;-86
2023/09/02 12:32:00;;;;;;;25.10;17.85;;;;;;;;;;4968476;28;20093;-88
2023/09/02 12:34:36;;;;;;;26.80;18.30;;;;;;;;;;4967082;28;20483;-83
2023/09/02 12:37:20;;;;;;;25.42;18.13;;;;;;;;;;4972367;28;20810;-83
2023/09/02 12:39:48;;;;;;;25.83;18.55;;;;;;;;;;4989905;28;20026;-84
2023/09/02 12:42:29;;;;;;;24.55;17.58;;;;;;;;;;4974978;28;20112;-83
2023/09/02 12:44:58;;;;;;;26.55;18.52;;;;;;;;;;4991048;28;20138;-86
2023/09/02 12:47:26;;;;;;;24.05;17.50;;;;;;;;;;4988815;28;20648;-87
2023/09/02 12:49:52;;;;;;;24.90;17.80;;;;;;;;;;4992981;28;20030;-87
2023/09/02 12:52:23;;;;;;;24.60;17.30;;;;;;;;;;4994944;28;20489;-87
2023/09/02 12:54:53;;;;;;;26.65;18.40;;;;;;;;;;4989929;28;20500;-87
2023/09/02 12:57:18;;;;;;;25.80;18.25;;;;;;;;;;4996155;28;20037;-86
2023/09/02 12:59:43;;;;;;;25.45;17.23;;;;;;;;;;4995657;28;20030;-87
2023/09/02 13:02:09;;;;;;;25.95;18.33;;;;;;;;;;4987823;28;20052;-87
2023/09/02 13:04:35;;;;;;;25.42;17.73;;;;;;;;;;4993689;28;20047;-85
2023/09/02 13:07:00;;;;;;;24.23;17.52;;;;;;;;;;4991077;28;20030;-86
2023/09/02 13:09:26;;;;;;;26.73;18.50;;;;;;;;;;4983324;28;20088;-86
2023/09/02 13:11:51;;;;;;;25.95;18.55;;;;;;;;;;5005203;28;20096;-86
2023/09/02 13:14:17;;;;;;;26.23;18.48;;;;;;;;;;4984253;28;20023;-87
2023/09/02 13:16:42;;;;;;;26.55;18.55;;;;;;;;;;4994819;28;20120;-89
2023/09/02 13:19:14;;;;;;;27.27;19.33;;;;;;;;;;4992595;28;20036;-86
2023/09/02 13:21:42;;;;;;;26.80;19.05;;;;;;;;;;4989700;28;20038;-85
2023/09/02 13:24:16;;;;;;;24.63;17.80;;;;;;;;;;4992087;28;20029;-86
2023/09/02 13:26:44;;;;;;;26.73;17.95;;;;;;;;;;5008773;28;20056;-85
2023/09/02 13:29:13;;;;;;;26.48;18.77;;;;;;;;;;4988444;28;20022;-86
2023/09/02 13:31:43;;;;;;;27.67;18.75;;;;;;;;;;5014240;28;20497;-86
2023/09/02 13:34:28;;;;;;;27.08;18.10;;;;;;;;;;5009957;28;20025;-87
2023/09/02 13:37:20;;;;;;;24.48;17.27;;;;;;;;;;4990671;28;20450;-86
2023/09/02 13:39:46;;;;;;;30.90;19.33;;;;;;;;;;5004472;28;20489;-87
2023/09/02 13:42:20;;;;;;;22.92;16.75;;;;;;;;;;5008096;28;20144;-86
2023/09/02 13:44:49;;;;;;;22.52;16.05;;;;;;;;;;4991035;28;20394;-86
2023/09/02 13:47:17;;;;;;;22.83;15.25;;;;;;;;;;4988693;28;20504;-84
2023/09/02 13:49:45;;;;;;;25.52;17.35;;;;;;;;;;4990800;28;20548;-86
2023/09/02 13:52:11;;;;;;;22.33;15.02;;;;;;;;;;4991613;28;22038;-86
2023/09/02 13:54:38;;;;;;;25.00;17.63;;;;;;;;;;4977872;28;20031;-85
2023/09/02 13:57:04;;;;;;;24.40;17.92;;;;;;;;;;4986909;28;20479;-83
2023/09/02 13:59:31;;;;;;;22.40;16.08;;;;;;;;;;4963304;28;20045;-83
2023/09/02 14:01:56;;;;;;;23.23;16.65;;;;;;;;;;4986331;28;20109;-82
2023/09/02 14:04:22;;;;;;;23.40;17.02;;;;;;;;;;4975117;28;20053;-82
2023/09/02 14:06:47;;;;;;;26.90;18.00;;;;;;;;;;4964534;28;20640;-83
2023/09/02 14:09:21;;;;;;;25.92;17.33;;;;;;;;;;4982829;28;20489;-83
2023/09/02 14:11:47;;;;;;;28.02;18.05;;;;;;;;;;4979828;28;20026;-82
2023/09/02 14:14:15;;;;;;;20.45;15.55;;;;;;;;;;4979148;28;20034;-82
2023/09/02 14:16:40;;;;;;;23.38;16.95;;;;;;;;;;4963788;28;20483;-81
2023/09/02 14:19:05;;;;;;;19.63;14.07;;;;;;;;;;4968327;28;20033;-82
2023/09/02 14:21:31;;;;;;;21.38;15.30;;;;;;;;;;4964694;28;20441;-82
2023/09/02 14:23:56;;;;;;;25.33;17.38;;;;;;;;;;4979300;28;20026;-81
2023/09/02 14:26:22;;;;;;;20.23;15.38;;;;;;;;;;4965378;28;20054;-82